• Join FlightAware (Why Join?)
  • Login
  • US Flag 
01:36PM EST


 

Airport Tracker/Info


-or-


 

Live Flight TrackerFlight Track Log ✈ SWA558 ✈ 13-Aug-2014 ✈ KLAS - KSAN

Flight Track Log - Related Links

Times and Time Zones

All times are in EDT time to prevent confusion due to time zone crossing. See the SWA558 flight status page for this flight to view local times or setup timezone preferences in your user account.

Time Position Orientation Groundspeed Altitude Reporting Facility
EDT Latitude Longitude Course Direction KTS MPH feet Rate Location/Type
07:17PM 36.0769 -115.1119 95° East 159 183 3,100  Level Los Angeles Center
07:17PM 36.0761 -115.0989 95° East 166 191 3,300 1,140 Climbing Los Angeles Center
07:18PM 36.0739 -115.0200 92° East 273 314 4,500 1,800 Climbing Los Angeles Center
07:19PM 36.0439 -114.9419 115° Southeast 272 313 7,000 2,700 Climbing Los Angeles Center
07:20PM 35.9678 -114.9594 191° South 289 333 10,000 3,060 Climbing Los Angeles Center
07:21PM 35.8683 -114.9644 182° South 318 366 13,700 2,820 Climbing Los Angeles Center
07:22PM 35.7756 -114.9669 181° South 335 386 16,300 2,700 Climbing Los Angeles Center
07:23PM 35.6733 -114.9703 182° South 359 413 19,400 2,820 Climbing Los Angeles Center
07:24PM 35.5706 -114.9794 184° South 367 422 22,200 2,400 Climbing Los Angeles Center
07:25PM 35.4683 -115.0294 202° Southwest 389 448 24,400 2,220 Climbing Los Angeles Center
07:26PM 35.3639 -115.0803 202° Southwest 399 459 26,800 1,680 Climbing Los Angeles Center
07:27PM 35.2328 -115.1411 201° Southwest 413 475 28,000 540 Climbing Los Angeles Center
07:28PM 35.1189 -115.1964 202° Southwest 434 499 28,000  Level Los Angeles Center
07:29PM 35.0125 -115.2472 201° Southwest 436 502 28,000  Level Los Angeles Center
07:30PM 34.8925 -115.3025 201° Southwest 436 502 28,000  Level Los Angeles Center
07:31PM 34.7792 -115.3569 202° Southwest 436 502 28,000 -60 Level Los Angeles Center
07:32PM 34.6564 -115.4136 201° Southwest 435 501 27,900 -60 Descending Los Angeles Center
07:33PM 34.5442 -115.4661 201° Southwest 434 499 27,900  Level Los Angeles Center
07:34PM 34.4306 -115.5186 201° Southwest 435 501 27,900  Level Los Angeles Center
07:35PM 34.3175 -115.5719 201° Southwest 435 501 27,900  Level Los Angeles Center
07:37PM 34.1822 -115.6339 201° Southwest 435 501 27,900  Level Los Angeles Center
07:38PM 34.0689 -115.6875 201° Southwest 435 501 27,900  Level Los Angeles Center
07:39PM 33.9567 -115.7400 201° Southwest 435 501 27,900  Level Los Angeles Center
07:40PM 33.8436 -115.7919 201° Southwest 435 501 27,900 -240 Level Los Angeles Center
07:41PM 33.7311 -115.8442 201° Southwest 435 501 27,500 -1,080 Descending Los Angeles Center
07:42PM 33.6003 -115.9044 201° Southwest 425 489 25,700 -1,800 Descending Los Angeles Center
07:43PM 33.5039 -115.9664 208° Southwest 408 470 23,900 -900 Descending Los Angeles Center
07:44PM 33.4408 -116.0722 234° Southwest 395 455 23,900 -780 Level Los Angeles Center
07:45PM 33.3792 -116.1769 235° Southwest 387 445 22,400 -1,800 Descending Los Angeles Center
07:46PM 33.3078 -116.2672 227° Southwest 385 443 20,300 -2,280 Descending Los Angeles Center
07:47PM 33.1975 -116.3319 206° Southwest 370 426 17,700 -2,100 Descending Los Angeles Center
07:48PM 33.1086 -116.3839 206° Southwest 362 417 16,000 -2,040 Descending Los Angeles Center
07:49PM 33.0197 -116.4356 206° Southwest 358 412 13,600 -1,980 Descending Los Angeles Center
07:50PM 32.9364 -116.4842 206° Southwest 349 402 12,000 -1,680 Descending Los Angeles Center
07:51PM 32.8436 -116.5414 207° Southwest 325 374 10,200 -1,380 Descending Los Angeles Center
07:52PM 32.8014 -116.6208 238° Southwest 290 334 9,200 -1,200 Descending Los Angeles Center
07:53PM 32.7625 -116.7006 240° Southwest 284 327 7,800 -1,320 Descending Los Angeles Center
07:54PM 32.7258 -116.7786 241° Southwest 276 318 6,500 -1,020 Descending Los Angeles Center
07:55PM 32.6950 -116.8550 244° Southwest 261 300 5,700 -720 Descending Los Angeles Center
07:56PM 32.6833 -116.9000 253° West 225 259 5,400 -1,200 Descending Southern California TRACON
07:57PM 32.6833 -116.9667 270° West 221 254 4,000 -1,320 Descending Southern California TRACON
07:58PM 32.7000 -117.0333 287° West 213 245 2,900 -1,140 Descending Southern California TRACON
07:59PM 32.7167 -117.1000 287° West 171 197 1,700 -1,020 Descending Southern California TRACON
08:00PM 32.7167 -117.1333 270° West 130 150 900 -840 Descending Southern California TRACON
08:00PM 32.7278 -117.1603 296° West 139 160 400 -780 Descending Los Angeles Center
08:02PM 32.7333 -117.1833 281° West  Level FlightAware Approximate
08:09PM 32.7336 -117.1897 281° West  Level Estimated
08:10PM 32.7333 -117.1833 281° West  Level FlightAware Approximate